Weather observations for the past three days for
Greeneville-Greene County Municipal Airport
Metric (Imperial)
Date Time (edt) Wind (kph) Vis. (km) Weather Sky Cond. Temperature (ºC) Relative Humidity Wind Chill (°C) Heat Index (°C) Pressure Precipitation (cm)
Air Dwpt 6 hour altimeter (cm) sea level (mb) 1 hr 3 hr 6 hr
Max. Min.
06 05:15 S 9 16.09 Overcast OVC044 19 10 56% 75.74 0.0
06 04:55 Vrbl 7 16.09 Overcast OVC046 19 10 56% 75.72 0.0
06 04:35 Vrbl 9 16.09 Overcast OVC047 18 11 64% 75.74 0.0
06 04:15 Vrbl 7 16.09 Overcast OVC049 16 12 77% 75.77 0.0
06 03:55 Calm 16.09 Overcast OVC050 16 13 83% 75.77 0.0
06 03:35 Calm 16.09 Overcast OVC050 16 13 83% 75.79 0.0
06 03:15 Calm 16.09 Overcast BKN050 OVC055 16 13 83% 75.79 0.0
06 02:55 Calm 8.05 Overcast with Haze FEW030 FEW048 OVC055 17 13 77% 75.84 0.0 0.03
06 02:35 Vrbl 7 16.09 Overcast OVC055 20 8 46% 75.82 0.0
06 02:15 Calm 16.09 Overcast OVC060 20 8 46% 75.84 0.0
06 01:55 S 6 16.09 Overcast OVC060 20 8 46% 75.84 0.0
06 01:35 Calm 16.09 Overcast OVC060 20 7 43% 75.84 0.0
06 01:15 Calm 16.09 Overcast OVC065 20 7 43% 75.87 0.0
06 00:55 Vrbl 6 16.09 Overcast OVC070 20 7 43% 75.9 0.0
06 00:35 Vrbl 7 16.09 Overcast OVC070 20 6 40% 75.92 0.0
06 00:15 S 9 16.09 Overcast OVC070 20 6 40% 75.9 0.0
05 23:55 Vrbl 7 16.09 Overcast BKN070 BKN075 OVC085 20 6 40% 75.9 0.0
05 23:35 Vrbl 7 G 20 16.09 Mostly Cloudy BKN080 20 6 40% 75.9 0.0
05 23:15 Vrbl 7 G 24 16.09 Fair CLR 20 6 40% 75.9 0.0
05 22:55 Vrbl 7 16.09 Fair CLR 20 6 40% 75.9 0.0
05 22:35 SW 9 G 20 16.09 Fair CLR 20 6 40% 75.9 0.0
05 22:15 Vrbl 11 G 22 16.09 Fair CLR 21 6 38% 75.87 0.0
05 21:55 Vrbl 7 G 22 16.09 Partly Cloudy SCT075 21 6 38% 75.84 0.0
05 21:35 Vrbl 11 G 26 16.09 Overcast BKN080 OVC090 21 7 40% 75.87 0.0
05 21:15 Vrbl 11 G 20 16.09 Overcast OVC090 21 7 40% 75.87 0.0
05 20:55 Vrbl 6 16.09 Overcast OVC090 21 8 43% 75.87 0.0
05 20:35 Calm 16.09 Overcast OVC090 21 9 46% 75.84 0.0
05 20:15 Calm 16.09 Overcast OVC095 20 10 53% 75.87 0.0
05 19:55 Calm 16.09 Overcast OVC095 21 10 50% 75.9 0.0
05 19:35 Calm 16.09 Overcast OVC100 21 10 50% 75.9 0.0
05 19:15 SW 6 16.09 Overcast OVC100 22 9 44% 75.87 0.0
05 18:55 Calm 16.09 Overcast OVC100 22 10 47% 75.9 0.0
05 18:35 W 6 16.09 Partly Cloudy SCT095 SCT110 22 9 44% 75.9 0.0
05 18:15 SW 6 16.09 Fair CLR 23 8 38% 75.9 0.0
05 17:55 W 11 16.09 Fair CLR 24 9 39% 25 75.9 0.0
05 17:35 W 6 16.09 Fair CLR 24 9 39% 25 75.9 0.0
05 17:15 W 7 16.09 Fair CLR 23 9 41% 75.9 0.0
05 16:55 Vrbl 11 16.09 Fair CLR 24 8 36% 25 75.9 0.0
05 16:35 SW 6 16.09 Fair CLR 23 8 38% 75.92 0.0
05 16:15 W 15 16.09 Fair CLR 24 9 39% 25 75.92 0.0
05 15:55 W 13 16.09 Fair CLR 24 8 36% 25 75.97 0.0
05 15:35 W 7 16.09 Fair CLR 23 8 38% 75.97 0.0
05 15:15 Vrbl 7 16.09 Fair CLR 23 8 38% 76 0.0
05 14:55 W 13 16.09 Fair CLR 23 8 38% 76.02 0.0
05 14:35 W 17 16.09 Fair CLR 23 8 38% 76.05 0.0
05 14:15 W 9 16.09 Fair CLR 23 7 36% 76.05 0.0
05 13:55 Vrbl 7 G 20 16.09 Fair CLR 23 7 36% 76.07 0.0
05 13:35 Vrbl 9 G 22 16.09 Fair CLR 23 7 36% 76.1 0.0
05 13:15 SW 13 16.09 Fair CLR 22 6 36% 76.15 0.0
05 12:55 SW 6 16.09 Fair CLR 22 6 36% 76.17 0.0
05 12:35 NW 7 G 19 16.09 Fair CLR 22 6 36% 76.15 0.0
05 12:15 Calm 16.09 Fair CLR 22 6 36% 76.15 0.0
05 11:55 W 11 G 22 16.09 Fair CLR 22 6 36% 76.17 0.0
05 11:35 W 15 G 28 16.09 Fair CLR 22 7 38% 76.17 0.0
05 11:15 SW 15 G 33 16.09 Fair CLR 21 6 38% 76.2 0.0
05 10:55 SW 15 G 26 16.09 Fair CLR 21 7 40% 76.17 0.0
05 10:35 SW 17 G 26 16.09 Fair CLR 21 6 38% 76.17 0.0
05 10:15 SW 15 G 26 16.09 Fair CLR 21 6 38% 76.17 0.0
05 09:55 Vrbl 6 G 20 16.09 Fair CLR 20 7 43% 76.17 0.0
05 09:35 Vrbl 7 16.09 Fair CLR 20 7 43% 76.17 0.0
05 09:15 Vrbl 7 16.09 Fair CLR 19 7 46% 76.17 0.0
05 08:55 SE 6 G 19 16.09 Fair CLR 18 7 49% 76.15 0.0
05 08:35 SE 7 16.09 Fair CLR 17 7 52% 76.15 0.0
05 08:15 S 11 16.09 Fair CLR 17 6 49% 76.15 0.0
05 07:55 Vrbl 11 16.09 Fair CLR 16 6 52% 76.15 0.0
05 07:35 S 9 16.09 Fair CLR 16 6 52% 76.1 0.0
05 07:15 Vrbl 11 16.09 Fair CLR 16 5 48% 76.1 0.0
05 06:55 S 15 16.09 Fair CLR 15 5 51% 76.07 0.0
05 06:35 Vrbl 9 16.09 Fair CLR 15 5 51% 76.07 0.0
05 06:15 Calm 16.09 Fair CLR 15 5 51% 76.1 0.0
05 05:55 Vrbl 9 G 20 16.09 Fair CLR 15 5 51% 76.07 0.0
05 05:35 Vrbl 6 16.09 Fair CLR 14 6 59% 76.1 0.0
05 05:15 Vrbl 7 16.09 Fair CLR 16 5 48% 76.1 0.0
05 04:55 Vrbl 7 16.09 Fair CLR 16 5 48% 76.07 0.0
05 04:35 Vrbl 9 G 19 16.09 Fair CLR 16 5 48% 76.07 0.0
05 04:15 S 9 16.09 Fair CLR 16 6 52% 76.05 0.0
05 03:55 Vrbl 7 16.09 Fair CLR 16 6 52% 76.05 0.0
05 03:35 Vrbl 7 16.09 Fair CLR 16 6 52% 76.05 0.0
05 03:15 Calm 16.09 Fair CLR 16 6 52% 76.05 0.0
05 02:55 Calm 16.09 Fair CLR 16 6 52% 76.02 0.0
05 02:35 Vrbl 6 16.09 Fair CLR 16 6 52% 76.02 0.0
05 02:15 S 9 16.09 Fair CLR 17 6 49% 76 0.0
05 01:55 S 9 16.09 Fair CLR 17 6 49% 76 0.0
05 01:35 Vrbl 7 G 19 16.09 Fair CLR 17 7 52% 76.02 0.0
05 01:15 S 7 G 19 16.09 Fair CLR 16 7 55% 76.02 0.0
05 00:55 S 9 16.09 Fair CLR 16 8 59% 76.02 0.0
05 00:35 Vrbl 7 16.09 Fair CLR 16 8 59% 76 0.0
05 00:15 S 6 16.09 Fair CLR 16 8 59% 76 0.0
04 23:55 Vrbl 6 16.09 Fair CLR 16 8 59% 76 0.0
04 23:35 Vrbl 6 16.09 Fair CLR 18 8 52% 76 0.0
04 23:15 Calm 16.09 Fair CLR 17 8 56% 76.02 0.0
04 22:55 Calm 16.09 Fair CLR 17 9 60% 76.02 0.0
04 22:35 Calm 16.09 Fair CLR 17 8 56% 76.02 0.0
04 22:15 Calm 16.09 Fair CLR 17 9 60% 76.02 0.0
04 21:55 Calm 16.09 Fair CLR 17 8 56% 76.02 0.0
04 21:35 Calm 16.09 Fair CLR 18 8 52% 76.02 0.0
04 21:15 Calm 16.09 Fair CLR 17 9 60% 76 0.0
04 20:55 Calm 16.09 Fair CLR 17 10 64% 75.97 0.0
04 20:35 Calm 16.09 Fair CLR 19 9 52% 75.97 0.0
04 20:15 Calm 16.09 Fair CLR 20 9 49% 75.97 0.0
04 19:55 Calm 16.09 Fair CLR 22 9 44% 75.97 0.0
04 19:35 Calm 16.09 Fair CLR 22 8 41% 75.95 0.0
04 19:15 W 7 G 20 16.09 Fair CLR 23 9 41% 75.95 0.0
04 18:55 W 7 G 19 16.09 Fair CLR 23 8 38% 75.95 0.0
04 18:35 SW 9 G 20 16.09 Fair CLR 24 9 39% 25 75.95 0.0
04 18:15 W 13 16.09 Fair CLR 24 9 39% 25 75.95 0.0
04 17:55 W 11 16.09 Fair CLR 24 9 39% 25 75.95 0.0
04 17:35 Vrbl 9 16.09 Fair CLR 24 8 36% 25 75.95 0.0
04 17:15 Vrbl 11 16.09 Fair CLR 24 8 36% 25 75.97 0.0
04 16:55 SW 11 16.09 Fair CLR 24 8 36% 25 75.97 0.0
04 16:35 Vrbl 11 16.09 Fair CLR 24 8 36% 25 76 0.0
04 16:15 SW 9 16.09 Fair CLR 24 8 36% 25 76 0.0
04 15:55 W 15 16.09 Fair CLR 23 9 41% 76.02 0.0
04 15:35 Vrbl 9 16.09 Fair CLR 23 8 38% 76.05 0.0
04 15:15 W 9 G 20 16.09 Fair CLR 23 9 41% 76.07 0.0
04 14:55 Vrbl 7 G 20 16.09 Fair CLR 22 9 44% 76.1 0.0
04 14:35 NW 15 16.09 Fair CLR 22 9 44% 76.12 0.0
04 14:15 Calm 16.09 Fair CLR 21 8 43% 76.15 0.0
04 13:55 Vrbl 7 G 22 16.09 A Few Clouds FEW055 21 8 43% 76.15 0.0
04 13:35 W 9 16.09 A Few Clouds FEW055 21 8 43% 76.17 0.0
04 13:15 W 17 16.09 A Few Clouds FEW055 FEW070 20 7 43% 76.2 0.0
04 12:55 W 15 16.09 Partly Cloudy SCT055 SCT070 20 7 43% 76.23 0.0
04 12:35 Vrbl 11 16.09 Mostly Cloudy BKN060 20 7 43% 76.25 0.0
04 12:15 Vrbl 7 G 20 16.09 Partly Cloudy SCT060 19 6 43% 76.28 0.0
04 11:55 W 9 16.09 Fair CLR 18 5 43% 76.3 0.0
04 11:35 Calm 16.09 Fair CLR 18 5 43% 76.33 0.0
04 11:15 Calm 16.09 Fair CLR 17 5 45% 76.35 0.0
04 10:55 Calm 16.09 A Few Clouds FEW080 16 5 48% 76.38 0.0
04 10:35 Calm 16.09 Mostly Cloudy BKN080 BKN090 15 4 48% 76.38 0.0
04 10:15 Calm 16.09 Mostly Cloudy BKN080 BKN100 14 5 55% 76.38 0.0
04 09:55 N 6 16.09 Mostly Cloudy BKN085 BKN100 14 5 55% 76.4 0.0
04 09:35 N 9 16.09 Partly Cloudy SCT080 13 5 59% 76.38 0.0
04 09:15 Vrbl 7 16.09 A Few Clouds FEW080 13 5 59% 76.35 0.0
04 08:55 NW 9 16.09 Partly Cloudy SCT080 13 5 59% 76.33 0.0
04 08:35 Calm 16.09 Fair CLR 13 4 55% 76.3 0.0
04 08:15 Calm 16.09 Fair CLR 12 4 58% 76.28 0.0
04 07:55 Calm 16.09 Fair CLR 11 3 58% 76.28 0.0
04 07:35 Vrbl 7 G 19 16.09 Fair CLR 11 3 58% 76.25 0.0
04 07:15 Vrbl 11 16.09 Fair CLR 10 3 62% 9 76.25 0.0
04 06:55 Calm 16.09 Fair CLR 9 3 66% 76.25 0.0
04 06:35 Calm 16.09 Fair CLR 8 3 71% 76.25 0.0
04 06:15 Calm 16.09 Fair CLR 8 3 71% 76.28 0.0
04 05:55 Vrbl 7 G 19 16.09 Fair CLR 10 2 58% 9 76.28 0.0
04 05:35 Calm 16.09 Fair CLR 8 3 71% 76.3 0.0
04 05:15 Calm 16.09 Fair CLR 8 3 71% 76.3 0.0
04 04:55 Calm 16.09 Fair CLR 7 3 76% 76.3 0.0
04 04:35 Calm 16.09 Fair CLR 9 2 62% 76.3 0.0
04 04:15 Vrbl 7 16.09 Fair CLR 8 3 71% 7 76.3 0.0
04 03:55 Calm 16.09 Fair CLR 7 3 76% 76.3 0.0
04 03:35 Calm 16.09 Fair CLR 6 4 87% 76.3 0.0
04 03:15 Calm 16.09 Fair CLR 8 3 71% 76.3 0.0
04 02:55 Calm 16.09 Fair CLR 8 2 66% 76.28 0.0
04 02:35 Calm 16.09 Fair CLR 9 2 62% 76.28 0.0
04 02:15 Calm 16.09 Fair CLR 9 1 58% 76.28 0.0
04 01:55 Calm 16.09 A Few Clouds FEW043 FEW120 9 2 62% 76.3 0.0
04 01:35 Calm 16.09 Fair CLR 9 1 58% 76.3 0.0
04 01:15 Calm 16.09 Fair CLR 8 2 66% 76.3 0.0
04 00:55 Calm 16.09 Fair CLR 9 2 62% 76.3 0.0
04 00:30 Calm 16.09 Fair CLR 10 1 54% 76.3 0.0
04 00:15 Calm 16.09 Fair CLR 10 2 58% 76.28 0.0
03 23:55 Calm 16.09 Fair CLR 11 1 50% 76.28 0.0
03 23:35 Calm 16.09 Fair CLR 11 1 50% 76.28 0.0
03 23:15 Calm 16.09 Fair CLR 10 1 54% 76.28 0.0
03 22:55 Calm 16.09 Fair CLR 10 1 54% 76.28 0.0
03 22:35 Calm 16.09 Fair CLR 10 1 54% 76.25 0.0
03 22:15 Calm 16.09 Fair CLR 10 1 54% 76.28 0.0
03 21:55 Calm 16.09 Fair CLR 11 1 50% 76.25 0.0
03 21:35 Calm 16.09 Fair CLR 11 2 54% 76.28 0.0
03 21:15 Calm 16.09 Fair CLR 10 3 62% 76.28 0.0
03 20:55 Calm 16.09 Fair CLR 11 2 54% 76.25 0.0
03 20:35 Calm 16.09 Fair CLR 12 2 51% 76.23 0.0
03 20:15 Calm 16.09 Fair CLR 14 1 41% 76.23 0.0
03 19:55 Calm 16.09 Fair CLR 15 1 39% 76.23 0.0
03 19:35 W 7 16.09 Fair CLR 16 0 34% 76.25 0.0
03 19:15 W 7 16.09 Fair CLR 16 0 34% 76.23 0.0
03 18:55 Vrbl 9 16.09 Fair CLR 16 -1 31% 76.25 0.0
03 18:35 W 11 16.09 Fair CLR 17 0 32% 76.25 0.0
03 18:15 SW 13 16.09 Fair CLR 17 0 32% 76.28 0.0
03 17:55 W 13 16.09 Fair CLR 17 0 32% 76.28 0.0
03 17:35 Vrbl 7 G 19 16.09 Fair CLR 16 -1 31% 76.28 0.0
03 17:15 W 17 16.09 Fair CLR 16 -1 31% 76.3 0.0
03 16:55 Vrbl 9 G 20 16.09 Fair CLR 16 -1 31% 76.33 0.0
03 16:35 W 9 G 20 16.09 Fair CLR 16 0 34% 76.33 0.0
03 16:15 W 9 16.09 Fair CLR 16 1 36% 76.35 0.0
03 15:55 Vrbl 7 16.09 Fair CLR 16 -1 31% 76.38 0.0
03 15:35 NW 11 16.09 Fair CLR 16 -1 31% 76.4 0.0
03 15:15 Vrbl 9 16.09 Fair CLR 15 -1 34% 76.4 0.0
03 14:55 Vrbl 6 G 19 16.09 Fair CLR 15 0 36% 76.43 0.0
03 14:35 Vrbl 7 G 19 16.09 Fair CLR 14 -2 33% 76.45 0.0
03 14:15 NW 17 16.09 Fair CLR 14 0 39% 76.48 0.0
03 13:55 Vrbl 9 16.09 Fair CLR 14 -2 33% 76.48 0.0
03 13:35 Vrbl 9 G 19 16.09 Fair CLR 14 -1 36% 76.5 0.0
03 13:15 Vrbl 6 16.09 Fair CLR 13 -2 36% 76.5 0.0
03 12:55 Vrbl 6 G 19 16.09 Fair CLR 13 -2 36% 76.53 0.0
03 12:35 Vrbl 9 G 20 16.09 Fair CLR 12 -2 38% 76.56 0.0
03 12:15 Calm 16.09 Fair CLR 12 -2 38% 76.58 0.0
03 11:55 Vrbl 11 16.09 Fair CLR 12 -1 41% 76.58 0.0
03 11:35 Calm 16.09 Fair CLR 11 -3 38% 76.61 0.0
03 11:15 Calm 16.09 Fair CLR 11 -5 32% 76.61 0.0
03 10:55 Vrbl 9 G 19 16.09 A Few Clouds FEW048 11 -2 41% 76.61 0.0
03 10:35 Calm 16.09 Fair CLR 11 -2 41% 76.61 0.0
03 10:15 N 15 16.09 Fair CLR 10 -3 40% 8 76.61 0.0
03 09:55 N 9 G 19 16.09 Fair CLR 10 -2 43% 9 76.61 0.0
03 09:35 NE 7 16.09 Fair CLR 9 -2 46% 8 76.58 0.0
03 09:15 Calm 16.09 Fair CLR 9 -1 50% 76.58 0.0
03 08:55 Calm 16.09 Fair CLR 8 1 62% 76.58 0.0
03 08:35 Calm 16.09 Fair CLR 8 1 62% 76.58 0.0
03 08:15 Calm 16.09 Fair CLR 8 1 62% 76.56 0.0
03 07:55 Calm 16.09 Fair CLR 7 2 71% 76.56 0.0
03 07:35 Calm 16.09 Fair CLR 5 2 81% 76.53 0.0
03 07:15 Calm 16.09 Fair CLR 4 2 87% 76.5 0.0
03 06:55 Calm 16.09 Fair CLR 4 1 81% 76.48 0.0
03 06:35 Calm 16.09 Fair CLR 3 1 87% 76.45 0.0
03 06:15 Calm 16.09 Fair CLR 3 2 93% 76.43 0.0
03 05:55 Calm 16.09 Fair CLR 4 2 87% 76.43 0.0
03 05:35 Calm 16.09 Fair CLR 4 2 87% 76.43 0.0
Date Time (edt) Wind (kph) Vis. (km) Weather Sky Cond. Air Dwpt Max. Min. Relative Humidity Wind Chill (°C) Heat Index (°C) altimeter (cm) sea level (mb) 1 hr 3 hr 6 hr
6 hour
Temperature (ºC) Pressure Precipitation (cm)